sensor_id;sensor_type;location;lat;lon;timestamp;pressure;altitude;pressure_sealevel;temperature;humidity
62124;BME280;48110;47.532;19.078;2023-03-25T00:02:14;99445.06;;;15.19;78.13
62124;BME280;48110;47.532;19.078;2023-03-25T00:05:22;99439.56;;;15.32;76.37
62124;BME280;48110;47.532;19.078;2023-03-25T00:08:27;99435.56;;;15.23;76.50
62124;BME280;48110;47.532;19.078;2023-03-25T00:11:36;99442.03;;;15.34;74.90
62124;BME280;48110;47.532;19.078;2023-03-25T00:14:43;99438.44;;;15.40;73.85
62124;BME280;48110;47.532;19.078;2023-03-25T00:18:04;99441.72;;;15.42;72.30
62124;BME280;48110;47.532;19.078;2023-03-25T00:21:13;99430.44;;;15.40;71.74
62124;BME280;48110;47.532;19.078;2023-03-25T00:24:21;99429.13;;;15.49;70.44
62124;BME280;48110;47.532;19.078;2023-03-25T00:27:27;99439.41;;;15.52;70.36
62124;BME280;48110;47.532;19.078;2023-03-25T00:30:39;99441.62;;;15.55;69.73
62124;BME280;48110;47.532;19.078;2023-03-25T00:33:46;99444.69;;;15.58;69.34
62124;BME280;48110;47.532;19.078;2023-03-25T00:36:56;99451.22;;;15.62;69.45
62124;BME280;48110;47.532;19.078;2023-03-25T00:40:05;99450.38;;;15.62;69.45
62124;BME280;48110;47.532;19.078;2023-03-25T00:43:14;99440.12;;;15.59;70.08
62124;BME280;48110;47.532;19.078;2023-03-25T00:46:23;99445.94;;;15.49;70.79
62124;BME280;48110;47.532;19.078;2023-03-25T00:49:32;99456.75;;;15.43;71.43
62124;BME280;48110;47.532;19.078;2023-03-25T00:52:39;99448.44;;;15.51;71.69
62124;BME280;48110;47.532;19.078;2023-03-25T00:55:47;99452.22;;;15.43;72.43
62124;BME280;48110;47.532;19.078;2023-03-25T00:58:55;99450.34;;;15.44;73.43
62124;BME280;48110;47.532;19.078;2023-03-25T01:02:04;99444.03;;;15.38;73.97
62124;BME280;48110;47.532;19.078;2023-03-25T01:05:12;99450.06;;;15.34;75.32
62124;BME280;48110;47.532;19.078;2023-03-25T01:08:21;99458.06;;;15.34;76.39
62124;BME280;48110;47.532;19.078;2023-03-25T01:11:30;99463.91;;;15.24;78.07
62124;BME280;48110;47.532;19.078;2023-03-25T01:14:41;99453.06;;;15.19;80.43
62124;BME280;48110;47.532;19.078;2023-03-25T01:17:48;99444.13;;;15.07;84.64
62124;BME280;48110;47.532;19.078;2023-03-25T01:20:56;99440.75;;;14.93;87.97
62124;BME280;48110;47.532;19.078;2023-03-25T01:24:05;99452.53;;;14.86;90.35
62124;BME280;48110;47.532;19.078;2023-03-25T01:27:13;99437.66;;;14.71;93.87
62124;BME280;48110;47.532;19.078;2023-03-25T01:30:21;99436.91;;;14.58;97.97
62124;BME280;48110;47.532;19.078;2023-03-25T01:33:30;99459.41;;;14.44;100.00
62124;BME280;48110;47.532;19.078;2023-03-25T01:36:40;99441.59;;;14.31;100.00
62124;BME280;48110;47.532;19.078;2023-03-25T01:39:53;99459.53;;;14.17;100.00
62124;BME280;48110;47.532;19.078;2023-03-25T01:43:07;99462.84;;;14.13;100.00
62124;BME280;48110;47.532;19.078;2023-03-25T01:46:14;99460.00;;;14.08;100.00
62124;BME280;48110;47.532;19.078;2023-03-25T01:49:29;99451.56;;;14.04;100.00
62124;BME280;48110;47.532;19.078;2023-03-25T01:52:38;99467.44;;;13.92;100.00
62124;BME280;48110;47.532;19.078;2023-03-25T01:55:47;99469.91;;;13.87;100.00
62124;BME280;48110;47.532;19.078;2023-03-25T01:59:02;99464.59;;;13.81;100.00
62124;BME280;48110;47.532;19.078;2023-03-25T02:02:11;99474.09;;;13.64;100.00
62124;BME280;48110;47.532;19.078;2023-03-25T02:08:57;99487.62;;;13.56;100.00
62124;BME280;48110;47.532;19.078;2023-03-25T02:12:07;99488.50;;;13.49;100.00
62124;BME280;48110;47.532;19.078;2023-03-25T02:15:19;99499.56;;;13.40;100.00
62124;BME280;48110;47.532;19.078;2023-03-25T02:41:40;99476.66;;;12.06;100.00
62124;BME280;48110;47.532;19.078;2023-03-25T02:45:06;99479.03;;;11.88;100.00
62124;BME280;48110;47.532;19.078;2023-03-25T02:48:20;99475.94;;;11.77;100.00
62124;BME280;48110;47.532;19.078;2023-03-25T02:51:40;99474.28;;;11.76;100.00
62124;BME280;48110;47.532;19.078;2023-03-25T02:54:53;99460.91;;;11.63;100.00
62124;BME280;48110;47.532;19.078;2023-03-25T02:58:08;99463.34;;;11.58;100.00
62124;BME280;48110;47.532;19.078;2023-03-25T03:01:16;99468.75;;;11.44;100.00
62124;BME280;48110;47.532;19.078;2023-03-25T03:04:26;99466.09;;;11.37;100.00
62124;BME280;48110;47.532;19.078;2023-03-25T03:07:34;99462.63;;;11.37;100.00
62124;BME280;48110;47.532;19.078;2023-03-25T03:11:01;99468.97;;;11.42;100.00
62124;BME280;48110;47.532;19.078;2023-03-25T03:17:23;99471.28;;;11.24;100.00
62124;BME280;48110;47.532;19.078;2023-03-25T03:27:03;99482.41;;;11.06;100.00
62124;BME280;48110;47.532;19.078;2023-03-25T03:30:59;99493.03;;;11.06;100.00
62124;BME280;48110;47.532;19.078;2023-03-25T03:33:52;99487.22;;;10.96;100.00
62124;BME280;48110;47.532;19.078;2023-03-25T03:37:01;99486.88;;;10.78;100.00
62124;BME280;48110;47.532;19.078;2023-03-25T03:40:14;99501.62;;;10.66;100.00
62124;BME280;48110;47.532;19.078;2023-03-25T03:46:32;99499.56;;;10.61;100.00
62124;BME280;48110;47.532;19.078;2023-03-25T03:49:57;99511.75;;;10.56;100.00
62124;BME280;48110;47.532;19.078;2023-03-25T03:56:19;99519.38;;;10.44;100.00
62124;BME280;48110;47.532;19.078;2023-03-25T04:13:03;99533.94;;;10.33;100.00
62124;BME280;48110;47.532;19.078;2023-03-25T04:16:10;99540.34;;;10.39;100.00
62124;BME280;48110;47.532;19.078;2023-03-25T04:19:20;99533.50;;;10.30;100.00
62124;BME280;48110;47.532;19.078;2023-03-25T04:22:29;99550.69;;;10.34;100.00
62124;BME280;48110;47.532;19.078;2023-03-25T04:25:40;99552.50;;;10.33;100.00
62124;BME280;48110;47.532;19.078;2023-03-25T04:28:49;99558.06;;;10.38;100.00
62124;BME280;48110;47.532;19.078;2023-03-25T04:31:58;99565.19;;;10.38;100.00
62124;BME280;48110;47.532;19.078;2023-03-25T04:35:05;99562.72;;;10.36;100.00
62124;BME280;48110;47.532;19.078;2023-03-25T04:38:18;99566.69;;;10.40;100.00
62124;BME280;48110;47.532;19.078;2023-03-25T04:41:25;99567.69;;;10.39;100.00
62124;BME280;48110;47.532;19.078;2023-03-25T04:44:35;99567.47;;;10.41;100.00
62124;BME280;48110;47.532;19.078;2023-03-25T04:47:45;99570.50;;;10.38;100.00
62124;BME280;48110;47.532;19.078;2023-03-25T04:50:55;99582.50;;;10.34;100.00
62124;BME280;48110;47.532;19.078;2023-03-25T04:54:03;99582.94;;;10.37;100.00
62124;BME280;48110;47.532;19.078;2023-03-25T04:57:14;99582.94;;;10.37;100.00
62124;BME280;48110;47.532;19.078;2023-03-25T05:00:26;99575.38;;;10.34;100.00
62124;BME280;48110;47.532;19.078;2023-03-25T05:03:35;99584.19;;;10.41;100.00
62124;BME280;48110;47.532;19.078;2023-03-25T05:06:46;99596.84;;;10.39;100.00
62124;BME280;48110;47.532;19.078;2023-03-25T05:09:57;99591.88;;;10.36;100.00
62124;BME280;48110;47.532;19.078;2023-03-25T05:13:11;99593.38;;;10.39;100.00
62124;BME280;48110;47.532;19.078;2023-03-25T05:16:21;99600.59;;;10.45;100.00
62124;BME280;48110;47.532;19.078;2023-03-25T05:19:28;99605.25;;;10.28;100.00
62124;BME280;48110;47.532;19.078;2023-03-25T05:22:35;99604.78;;;10.39;100.00
62124;BME280;48110;47.532;19.078;2023-03-25T05:25:45;99600.88;;;10.35;100.00
62124;BME280;48110;47.532;19.078;2023-03-25T05:28:55;99607.44;;;10.39;100.00
62124;BME280;48110;47.532;19.078;2023-03-25T05:32:03;99615.56;;;10.38;100.00
62124;BME280;48110;47.532;19.078;2023-03-25T05:35:10;99609.38;;;10.45;100.00
62124;BME280;48110;47.532;19.078;2023-03-25T05:38:18;99607.25;;;10.41;100.00
62124;BME280;48110;47.532;19.078;2023-03-25T05:41:26;99620.59;;;10.48;100.00
62124;BME280;48110;47.532;19.078;2023-03-25T05:44:45;99617.22;;;10.39;100.00
62124;BME280;48110;47.532;19.078;2023-03-25T05:47:56;99610.53;;;10.43;100.00
62124;BME280;48110;47.532;19.078;2023-03-25T05:51:05;99614.47;;;10.32;100.00
62124;BME280;48110;47.532;19.078;2023-03-25T05:54:19;99615.72;;;10.51;100.00
62124;BME280;48110;47.532;19.078;2023-03-25T05:57:26;99615.84;;;10.43;100.00
62124;BME280;48110;47.532;19.078;2023-03-25T06:00:32;99614.31;;;10.34;100.00
62124;BME280;48110;47.532;19.078;2023-03-25T06:03:42;99612.03;;;10.31;100.00
62124;BME280;48110;47.532;19.078;2023-03-25T06:06:49;99615.66;;;10.44;100.00
62124;BME280;48110;47.532;19.078;2023-03-25T06:09:55;99619.31;;;10.43;100.00
62124;BME280;48110;47.532;19.078;2023-03-25T06:13:05;99623.69;;;10.51;100.00
62124;BME280;48110;47.532;19.078;2023-03-25T06:16:13;99630.91;;;10.57;100.00
62124;BME280;48110;47.532;19.078;2023-03-25T06:19:25;99622.84;;;10.65;100.00
62124;BME280;48110;47.532;19.078;2023-03-25T06:22:38;99636.28;;;10.78;100.00
62124;BME280;48110;47.532;19.078;2023-03-25T06:25:47;99625.97;;;10.90;100.00
62124;BME280;48110;47.532;19.078;2023-03-25T06:28:57;99625.34;;;10.88;100.00
62124;BME280;48110;47.532;19.078;2023-03-25T06:32:05;99620.66;;;10.90;100.00
62124;BME280;48110;47.532;19.078;2023-03-25T06:35:10;99625.66;;;11.00;100.00
62124;BME280;48110;47.532;19.078;2023-03-25T06:38:17;99628.06;;;11.16;100.00
62124;BME280;48110;47.532;19.078;2023-03-25T06:41:28;99635.41;;;11.14;100.00
62124;BME280;48110;47.532;19.078;2023-03-25T06:44:37;99637.13;;;11.21;100.00
62124;BME280;48110;47.532;19.078;2023-03-25T06:47:45;99637.94;;;11.22;100.00
62124;BME280;48110;47.532;19.078;2023-03-25T06:50:53;99643.75;;;11.32;100.00
62124;BME280;48110;47.532;19.078;2023-03-25T06:54:03;99647.78;;;11.49;100.00
62124;BME280;48110;47.532;19.078;2023-03-25T06:57:10;99662.97;;;11.55;100.00
62124;BME280;48110;47.532;19.078;2023-03-25T07:00:20;99654.84;;;11.63;100.00
62124;BME280;48110;47.532;19.078;2023-03-25T07:03:30;99656.66;;;11.56;100.00
62124;BME280;48110;47.532;19.078;2023-03-25T07:06:40;99650.78;;;11.89;100.00
62124;BME280;48110;47.532;19.078;2023-03-25T07:09:51;99656.00;;;12.03;100.00
62124;BME280;48110;47.532;19.078;2023-03-25T07:13:03;99658.84;;;12.36;100.00
62124;BME280;48110;47.532;19.078;2023-03-25T07:16:10;99662.53;;;12.35;100.00
62124;BME280;48110;47.532;19.078;2023-03-25T07:19:18;99662.16;;;12.92;100.00
62124;BME280;48110;47.532;19.078;2023-03-25T07:22:28;99664.56;;;13.55;100.00
62124;BME280;48110;47.532;19.078;2023-03-25T07:25:35;99667.78;;;13.17;100.00
62124;BME280;48110;47.532;19.078;2023-03-25T07:28:43;99663.91;;;13.33;100.00
62124;BME280;48110;47.532;19.078;2023-03-25T07:31:55;99673.16;;;13.43;100.00
62124;BME280;48110;47.532;19.078;2023-03-25T07:35:05;99681.34;;;14.01;100.00
62124;BME280;48110;47.532;19.078;2023-03-25T07:38:17;99679.31;;;13.83;100.00
62124;BME280;48110;47.532;19.078;2023-03-25T07:41:25;99679.72;;;14.13;100.00
62124;BME280;48110;47.532;19.078;2023-03-25T07:44:38;99678.28;;;14.88;100.00
62124;BME280;48110;47.532;19.078;2023-03-25T07:47:45;99678.19;;;15.08;100.00
62124;BME280;48110;47.532;19.078;2023-03-25T07:50:55;99678.00;;;15.03;100.00
62124;BME280;48110;47.532;19.078;2023-03-25T07:54:02;99669.50;;;14.74;100.00
62124;BME280;48110;47.532;19.078;2023-03-25T07:57:11;99688.84;;;14.70;100.00
62124;BME280;48110;47.532;19.078;2023-03-25T08:00:17;99681.53;;;14.19;100.00
62124;BME280;48110;47.532;19.078;2023-03-25T08:03:25;99674.66;;;15.14;100.00
62124;BME280;48110;47.532;19.078;2023-03-25T08:06:32;99678.19;;;15.71;100.00
62124;BME280;48110;47.532;19.078;2023-03-25T08:09:40;99681.06;;;16.37;93.41
62124;BME280;48110;47.532;19.078;2023-03-25T08:12:47;99669.50;;;16.79;91.09
62124;BME280;48110;47.532;19.078;2023-03-25T08:15:57;99683.00;;;17.03;82.46
62124;BME280;48110;47.532;19.078;2023-03-25T08:19:09;99671.06;;;16.07;84.54
62124;BME280;48110;47.532;19.078;2023-03-25T08:22:18;99684.88;;;16.47;83.32
62124;BME280;48110;47.532;19.078;2023-03-25T08:25:30;99676.69;;;15.81;83.76
62124;BME280;48110;47.532;19.078;2023-03-25T08:28:40;99677.06;;;16.28;81.94
62124;BME280;48110;47.532;19.078;2023-03-25T08:31:48;99676.88;;;16.84;76.22
62124;BME280;48110;47.532;19.078;2023-03-25T08:34:58;99667.84;;;17.68;71.38
62124;BME280;48110;47.532;19.078;2023-03-25T08:38:05;99671.91;;;18.75;65.05
62124;BME280;48110;47.532;19.078;2023-03-25T08:41:14;99675.53;;;18.46;63.50
62124;BME280;48110;47.532;19.078;2023-03-25T08:44:22;99683.03;;;18.32;62.15
62124;BME280;48110;47.532;19.078;2023-03-25T08:47:33;99671.47;;;17.44;65.21
62124;BME280;48110;47.532;19.078;2023-03-25T08:50:41;99663.88;;;17.70;63.13
62124;BME280;48110;47.532;19.078;2023-03-25T08:53:53;99676.97;;;18.48;60.20
62124;BME280;48110;47.532;19.078;2023-03-25T08:57:03;99671.69;;;18.30;60.78
62124;BME280;48110;47.532;19.078;2023-03-25T09:00:13;99669.25;;;18.63;59.63
62124;BME280;48110;47.532;19.078;2023-03-25T09:03:22;99671.81;;;18.35;60.29
62124;BME280;48110;47.532;19.078;2023-03-25T09:06:29;99656.75;;;16.02;70.20
62124;BME280;48110;47.532;19.078;2023-03-25T09:09:52;99655.22;;;15.32;74.41
62124;BME280;48110;47.532;19.078;2023-03-25T09:13:00;99652.72;;;15.05;78.56
62124;BME280;48110;47.532;19.078;2023-03-25T09:16:10;99651.66;;;15.06;78.63
62124;BME280;48110;47.532;19.078;2023-03-25T09:19:22;99658.94;;;14.93;78.99
62124;BME280;48110;47.532;19.078;2023-03-25T09:22:32;99658.19;;;14.72;84.15
62124;BME280;48110;47.532;19.078;2023-03-25T09:25:41;99660.00;;;14.85;80.51
62124;BME280;48110;47.532;19.078;2023-03-25T09:28:50;99666.66;;;14.69;82.54
62124;BME280;48110;47.532;19.078;2023-03-25T09:31:59;99652.38;;;14.89;80.77
62124;BME280;48110;47.532;19.078;2023-03-25T09:35:06;99663.56;;;15.10;81.32
62124;BME280;48110;47.532;19.078;2023-03-25T09:38:14;99654.41;;;15.00;75.89
62124;BME280;48110;47.532;19.078;2023-03-25T09:51:31;99663.41;;;15.68;69.56
62124;BME280;48110;47.532;19.078;2023-03-25T09:54:43;99656.38;;;15.11;71.45
62124;BME280;48110;47.532;19.078;2023-03-25T09:57:54;99661.31;;;15.07;74.24
62124;BME280;48110;47.532;19.078;2023-03-25T10:01:11;99665.72;;;15.27;75.04
62124;BME280;48110;47.532;19.078;2023-03-25T10:07:58;99670.63;;;15.68;69.31
62124;BME280;48110;47.532;19.078;2023-03-25T10:14:27;99673.53;;;15.59;72.28
62124;BME280;48110;47.532;19.078;2023-03-25T10:21:12;99661.75;;;16.17;67.07
62124;BME280;48110;47.532;19.078;2023-03-25T10:27:40;99658.03;;;16.72;59.83
62124;BME280;48110;47.532;19.078;2023-03-25T10:30:54;99667.41;;;16.81;60.77
62124;BME280;48110;47.532;19.078;2023-03-25T10:34:06;99659.81;;;16.24;62.43
62124;BME280;48110;47.532;19.078;2023-03-25T10:37:19;99656.75;;;15.77;64.29
62124;BME280;48110;47.532;19.078;2023-03-25T10:40:38;99666.88;;;15.69;66.11
62124;BME280;48110;47.532;19.078;2023-03-25T10:43:49;99661.81;;;15.85;65.50
62124;BME280;48110;47.532;19.078;2023-03-25T10:46:57;99663.75;;;16.39;64.58
62124;BME280;48110;47.532;19.078;2023-03-25T10:50:16;99670.16;;;16.93;59.17
62124;BME280;48110;47.532;19.078;2023-03-25T10:53:24;99653.16;;;17.29;56.44
62124;BME280;48110;47.532;19.078;2023-03-25T10:56:37;99658.06;;;17.73;52.98
62124;BME280;48110;47.532;19.078;2023-03-25T11:03:03;99648.00;;;17.69;53.10
62124;BME280;48110;47.532;19.078;2023-03-25T11:06:19;99669.28;;;17.11;54.02
62124;BME280;48110;47.532;19.078;2023-03-25T11:09:29;99666.47;;;17.06;53.86
62124;BME280;48110;47.532;19.078;2023-03-25T11:12:36;99663.91;;;16.81;54.39
62124;BME280;48110;47.532;19.078;2023-03-25T11:15:48;99664.06;;;16.68;54.07
62124;BME280;48110;47.532;19.078;2023-03-25T11:18:59;99668.25;;;17.12;53.51
62124;BME280;48110;47.532;19.078;2023-03-25T11:22:11;99668.59;;;16.85;53.88
62124;BME280;48110;47.532;19.078;2023-03-25T11:25:25;99667.69;;;16.37;57.63
62124;BME280;48110;47.532;19.078;2023-03-25T11:28:42;99656.81;;;15.71;59.07
62124;BME280;48110;47.532;19.078;2023-03-25T11:32:09;99676.22;;;14.90;68.74
62124;BME280;48110;47.532;19.078;2023-03-25T11:35:23;99657.09;;;14.93;67.54
62124;BME280;48110;47.532;19.078;2023-03-25T11:38:29;99666.09;;;15.68;62.45
62124;BME280;48110;47.532;19.078;2023-03-25T11:41:40;99661.22;;;16.26;59.20
62124;BME280;48110;47.532;19.078;2023-03-25T11:44:51;99656.59;;;15.97;58.30
62124;BME280;48110;47.532;19.078;2023-03-25T11:47:58;99661.34;;;16.13;58.76
62124;BME280;48110;47.532;19.078;2023-03-25T11:51:12;99667.72;;;15.94;55.26
62124;BME280;48110;47.532;19.078;2023-03-25T11:54:26;99670.12;;;16.02;53.92
62124;BME280;48110;47.532;19.078;2023-03-25T11:57:36;99669.47;;;15.57;54.55
62124;BME280;48110;47.532;19.078;2023-03-25T12:00:50;99661.69;;;15.17;55.95
62124;BME280;48110;47.532;19.078;2023-03-25T12:04:06;99679.19;;;16.62;52.35
62124;BME280;48110;47.532;19.078;2023-03-25T12:07:14;99674.63;;;16.99;51.04
62124;BME280;48110;47.532;19.078;2023-03-25T12:10:21;99682.44;;;18.30;49.18
62124;BME280;48110;47.532;19.078;2023-03-25T12:13:52;99693.94;;;19.17;45.05
62124;BME280;48110;47.532;19.078;2023-03-25T12:17:16;99679.09;;;17.17;48.20
62124;BME280;48110;47.532;19.078;2023-03-25T12:27:19;99666.81;;;15.82;51.80
62124;BME280;48110;47.532;19.078;2023-03-25T12:34:36;99656.44;;;16.10;51.85
62124;BME280;48110;47.532;19.078;2023-03-25T12:44:06;99650.44;;;16.33;49.58
62124;BME280;48110;47.532;19.078;2023-03-25T12:50:42;99635.44;;;18.04;45.55
62124;BME280;48110;47.532;19.078;2023-03-25T12:57:11;99633.44;;;18.11;43.80
62124;BME280;48110;47.532;19.078;2023-03-25T13:00:24;99623.16;;;17.20;45.52
62124;BME280;48110;47.532;19.078;2023-03-25T13:03:38;99621.59;;;17.54;45.71
62124;BME280;48110;47.532;19.078;2023-03-25T13:07:03;99617.00;;;18.08;43.87
62124;BME280;48110;47.532;19.078;2023-03-25T13:10:17;99608.06;;;17.49;44.72
62124;BME280;48110;47.532;19.078;2023-03-25T13:13:25;99615.75;;;16.92;45.80
62124;BME280;48110;47.532;19.078;2023-03-25T13:16:35;99611.19;;;16.63;46.29
62124;BME280;48110;47.532;19.078;2023-03-25T13:19:46;99614.91;;;16.44;45.47
62124;BME280;48110;47.532;19.078;2023-03-25T13:22:55;99614.16;;;16.37;46.63
62124;BME280;48110;47.532;19.078;2023-03-25T13:26:11;99605.22;;;16.43;46.48
62124;BME280;48110;47.532;19.078;2023-03-25T13:29:32;99604.56;;;16.47;45.67
62124;BME280;48110;47.532;19.078;2023-03-25T13:32:45;99618.47;;;16.38;46.36
62124;BME280;48110;47.532;19.078;2023-03-25T13:42:27;99616.22;;;16.53;44.98
62124;BME280;48110;47.532;19.078;2023-03-25T13:48:54;99625.91;;;16.36;45.44
62124;BME280;48110;47.532;19.078;2023-03-25T13:52:05;99624.12;;;17.26;43.04
62124;BME280;48110;47.532;19.078;2023-03-25T13:55:15;99624.66;;;18.16;41.76
62124;BME280;48110;47.532;19.078;2023-03-25T14:14:58;99629.31;;;19.57;38.07
62124;BME280;48110;47.532;19.078;2023-03-25T14:18:12;99624.62;;;19.19;39.00
62124;BME280;48110;47.532;19.078;2023-03-25T14:24:48;99615.53;;;17.35;42.46
62124;BME280;48110;47.532;19.078;2023-03-25T14:27:55;99607.28;;;17.07;43.29
62124;BME280;48110;47.532;19.078;2023-03-25T14:31:47;99596.91;;;16.33;44.47
62124;BME280;48110;47.532;19.078;2023-03-25T14:34:34;99608.84;;;15.94;45.59
62124;BME280;48110;47.532;19.078;2023-03-25T14:37:46;99607.66;;;15.40;47.68
62124;BME280;48110;47.532;19.078;2023-03-25T14:40:55;99604.41;;;15.38;47.56
62124;BME280;48110;47.532;19.078;2023-03-25T14:44:17;99612.44;;;15.32;47.17
62124;BME280;48110;47.532;19.078;2023-03-25T14:47:26;99609.09;;;15.11;48.19
62124;BME280;48110;47.532;19.078;2023-03-25T14:50:36;99610.38;;;15.09;47.51
62124;BME280;48110;47.532;19.078;2023-03-25T14:53:51;99616.00;;;14.94;48.05
62124;BME280;48110;47.532;19.078;2023-03-25T14:57:07;99609.44;;;14.90;48.36
62124;BME280;48110;47.532;19.078;2023-03-25T15:00:23;99603.66;;;15.00;48.55
62124;BME280;48110;47.532;19.078;2023-03-25T15:03:35;99605.44;;;15.06;48.52
62124;BME280;48110;47.532;19.078;2023-03-25T15:06:42;99605.34;;;14.88;48.00
62124;BME280;48110;47.532;19.078;2023-03-25T15:09:52;99605.81;;;14.78;48.85
62124;BME280;48110;47.532;19.078;2023-03-25T15:13:07;99601.31;;;14.72;49.37
62124;BME280;48110;47.532;19.078;2023-03-25T15:16:21;99611.78;;;14.73;48.77
62124;BME280;48110;47.532;19.078;2023-03-25T15:24:00;99609.75;;;14.75;48.99
62124;BME280;48110;47.532;19.078;2023-03-25T15:26:39;99610.84;;;14.55;49.01
62124;BME280;48110;47.532;19.078;2023-03-25T15:42:44;99624.97;;;14.68;48.14
62124;BME280;48110;47.532;19.078;2023-03-25T15:52:39;99608.81;;;14.57;48.00
62124;BME280;48110;47.532;19.078;2023-03-25T15:55:52;99603.91;;;14.47;48.47
62124;BME280;48110;47.532;19.078;2023-03-25T16:02:32;99614.06;;;14.12;48.50
62124;BME280;48110;47.532;19.078;2023-03-25T16:05:52;99594.38;;;14.00;49.23
62124;BME280;48110;47.532;19.078;2023-03-25T16:08:59;99600.97;;;13.98;49.11
62124;BME280;48110;47.532;19.078;2023-03-25T16:12:11;99600.56;;;13.94;49.38
62124;BME280;48110;47.532;19.078;2023-03-25T16:15:24;99605.28;;;13.85;48.94
62124;BME280;48110;47.532;19.078;2023-03-25T16:18:35;99607.75;;;13.80;49.12
62124;BME280;48110;47.532;19.078;2023-03-25T16:21:46;99607.75;;;13.80;49.50
62124;BME280;48110;47.532;19.078;2023-03-25T16:24:57;99608.38;;;13.76;49.00
62124;BME280;48110;47.532;19.078;2023-03-25T16:28:06;99609.41;;;13.68;48.22
62124;BME280;48110;47.532;19.078;2023-03-25T16:31:31;99602.66;;;13.59;48.31
62124;BME280;48110;47.532;19.078;2023-03-25T16:34:42;99613.91;;;13.48;48.55
62124;BME280;48110;47.532;19.078;2023-03-25T16:37:53;99619.87;;;13.43;48.25
62124;BME280;48110;47.532;19.078;2023-03-25T16:41:09;99619.47;;;13.40;48.50
62124;BME280;48110;47.532;19.078;2023-03-25T16:44:21;99614.72;;;13.22;49.04
62124;BME280;48110;47.532;19.078;2023-03-25T16:47:30;99615.16;;;13.26;48.52
62124;BME280;48110;47.532;19.078;2023-03-25T16:50:43;99619.22;;;13.22;49.80
62124;BME280;48110;47.532;19.078;2023-03-25T16:53:53;99623.69;;;13.08;49.33
62124;BME280;48110;47.532;19.078;2023-03-25T16:57:07;99622.66;;;12.96;50.06
62124;BME280;48110;47.532;19.078;2023-03-25T17:00:16;99620.16;;;12.88;50.07
62124;BME280;48110;47.532;19.078;2023-03-25T17:03:41;99621.38;;;12.85;49.52
62124;BME280;48110;47.532;19.078;2023-03-25T17:06:52;99620.16;;;12.81;49.76
62124;BME280;48110;47.532;19.078;2023-03-25T17:10:11;99622.97;;;12.67;50.26
62124;BME280;48110;47.532;19.078;2023-03-25T17:13:39;99621.69;;;12.56;49.92
62124;BME280;48110;47.532;19.078;2023-03-25T17:16:49;99619.44;;;12.53;50.29
62124;BME280;48110;47.532;19.078;2023-03-25T17:19:59;99619.91;;;12.22;51.46
62124;BME280;48110;47.532;19.078;2023-03-25T17:26:33;99631.38;;;12.23;51.69
62124;BME280;48110;47.532;19.078;2023-03-25T17:30:17;99624.81;;;12.18;52.00
62124;BME280;48110;47.532;19.078;2023-03-25T17:33:31;99634.44;;;12.19;51.54
62124;BME280;48110;47.532;19.078;2023-03-25T17:36:46;99634.78;;;12.10;51.92
62124;BME280;48110;47.532;19.078;2023-03-25T17:39:54;99636.38;;;12.04;51.83
62124;BME280;48110;47.532;19.078;2023-03-25T17:43:05;99635.37;;;12.12;51.89
62124;BME280;48110;47.532;19.078;2023-03-25T17:46:23;99643.56;;;12.10;51.66
62124;BME280;48110;47.532;19.078;2023-03-25T17:49:31;99641.94;;;12.09;51.98
62124;BME280;48110;47.532;19.078;2023-03-25T17:52:37;99635.25;;;11.92;52.45
62124;BME280;48110;47.532;19.078;2023-03-25T17:55:46;99643.97;;;11.80;53.52
62124;BME280;48110;47.532;19.078;2023-03-25T17:58:59;99642.22;;;11.72;53.29
62124;BME280;48110;47.532;19.078;2023-03-25T18:02:12;99650.03;;;11.52;54.57
62124;BME280;48110;47.532;19.078;2023-03-25T18:05:20;99649.19;;;11.45;54.41
62124;BME280;48110;47.532;19.078;2023-03-25T18:08:28;99643.44;;;11.42;54.68
62124;BME280;48110;47.532;19.078;2023-03-25T18:11:39;99655.12;;;11.26;55.54
62124;BME280;48110;47.532;19.078;2023-03-25T18:14:46;99664.09;;;11.25;57.07
62124;BME280;48110;47.532;19.078;2023-03-25T18:17:56;99670.16;;;11.19;56.32
62124;BME280;48110;47.532;19.078;2023-03-25T18:21:05;99678.19;;;11.04;56.99
62124;BME280;48110;47.532;19.078;2023-03-25T18:24:14;99677.94;;;10.84;57.99
62124;BME280;48110;47.532;19.078;2023-03-25T18:27:25;99675.16;;;10.71;58.83
62124;BME280;48110;47.532;19.078;2023-03-25T18:30:54;99682.56;;;10.61;58.74
62124;BME280;48110;47.532;19.078;2023-03-25T18:34:05;99675.53;;;10.68;59.48
62124;BME280;48110;47.532;19.078;2023-03-25T18:37:15;99689.78;;;10.67;58.74
62124;BME280;48110;47.532;19.078;2023-03-25T18:40:26;99695.56;;;11.07;57.82
62124;BME280;48110;47.532;19.078;2023-03-25T18:43:34;99693.69;;;11.43;56.74
62124;BME280;48110;47.532;19.078;2023-03-25T18:46:42;99695.91;;;11.40;56.31
62124;BME280;48110;47.532;19.078;2023-03-25T18:49:52;99701.72;;;11.50;55.84
62124;BME280;48110;47.532;19.078;2023-03-25T18:53:05;99704.06;;;11.59;55.71
62124;BME280;48110;47.532;19.078;2023-03-25T18:56:15;99720.84;;;11.60;55.70
62124;BME280;48110;47.532;19.078;2023-03-25T18:59:22;99717.91;;;11.55;56.43
62124;BME280;48110;47.532;19.078;2023-03-25T19:02:28;99720.50;;;11.69;57.85
62124;BME280;48110;47.532;19.078;2023-03-25T19:05:38;99718.34;;;11.58;59.63
62124;BME280;48110;47.532;19.078;2023-03-25T19:08:46;99715.41;;;11.47;62.13
62124;BME280;48110;47.532;19.078;2023-03-25T19:11:55;99710.28;;;11.45;64.16
62124;BME280;48110;47.532;19.078;2023-03-25T19:15:05;99725.94;;;11.40;67.09
62124;BME280;48110;47.532;19.078;2023-03-25T19:18:20;99725.47;;;11.51;68.90
62124;BME280;48110;47.532;19.078;2023-03-25T19:21:30;99732.84;;;11.56;71.69